Time;durP1;ratioP1;P1;durP2;ratioP2;P2;SDS_P1;SDS_P2;PMS_P1;PMS_P2;Temp;Humidity;BMP_temperature;BMP_pressure;BME280_temperature;BME280_humidity;BME280_pressure;Samples;Min_cycle;Max_cycle;Signal;HPM_P1;HPM_P2
2024/01/15 00:00:29;;;;;;;0.30;0.30;;;;;;;0.05;100.00;99956.28;5044099;28;20041;-75
2024/01/15 00:02:54;;;;;;;0.47;0.47;;;;;;;-0.46;100.00;99833.34;5022790;28;20032;-75
2024/01/15 00:05:20;;;;;;;0.70;0.70;;;;;;;-0.51;100.00;99828.88;5032160;28;20091;-76
2024/01/15 00:07:45;;;;;;;0.88;0.88;;;;;;;-0.73;100.00;99807.47;5041931;28;20036;-75
2024/01/15 00:10:11;;;;;;;4.50;4.13;;;;;;;-0.10;100.00;99909.31;5041923;28;20076;-76
2024/01/15 00:12:36;;;;;;;1.20;1.20;;;;;;;-0.30;100.00;99888.03;5041491;28;20048;-75
2024/01/15 00:15:02;;;;;;;0.57;0.57;;;;;;;-0.38;100.00;99849.06;5035189;28;20063;-76
2024/01/15 00:17:28;;;;;;;0.30;0.30;;;;;;;-0.51;100.00;99844.34;5042172;28;20097;-75
2024/01/15 00:19:53;;;;;;;3.25;3.05;;;;;;;0.11;100.00;99950.44;5039947;28;20056;-76
2024/01/15 00:22:19;;;;;;;0.32;0.32;;;;;;;-0.53;100.00;99851.13;5039671;28;20033;-76
2024/01/15 00:24:45;;;;;;;0.40;0.40;;;;;;;0.03;100.00;99947.63;5041682;28;20044;-76
2024/01/15 00:27:10;;;;;;;0.50;0.50;;;;;;;-0.13;100.00;99930.72;5043978;28;20120;-75
2024/01/15 00:29:36;;;;;;;1.42;0.70;;;;;;;-0.60;100.00;99844.88;5042069;28;21690;-75
2024/01/15 00:32:01;;;;;;;0.30;0.30;;;;;;;-0.52;100.00;99858.03;5017787;28;20041;-76
2024/01/15 00:34:27;;;;;;;0.50;0.50;;;;;;;-0.22;100.00;99931.28;5046044;28;20477;-76
2024/01/15 00:36:52;;;;;;;1.73;1.67;;;;;;;-0.25;100.00;99927.72;5041933;28;20053;-75
2024/01/15 00:39:18;;;;;;;0.45;0.45;;;;;;;-0.35;100.00;99918.78;5041941;28;20118;-76
2024/01/15 00:41:44;;;;;;;3.15;3.05;;;;;;;0.06;100.00;99955.44;5037142;28;20086;-75
2024/01/15 00:44:09;;;;;;;1.05;1.05;;;;;;;-0.47;100.00;99862.53;5039205;28;20033;-78
2024/01/15 00:46:43;;;;;;;0.20;0.20;;;;;;;-0.88;100.00;99841.31;5043641;28;20060;-75
2024/01/15 00:49:08;;;;;;;4.85;4.57;;;;;;;-0.39;100.00;99909.19;5033758;28;20041;-77
2024/01/15 00:51:34;;;;;;;0.30;0.30;;;;;;;-0.19;100.00;99929.63;5040696;28;20060;-76
2024/01/15 00:53:59;;;;;;;1.27;1.27;;;;;;;-0.67;100.00;99851.50;5032190;28;20099;-75
2024/01/15 00:56:25;;;;;;;0.35;0.35;;;;;;;-0.05;100.00;99951.59;5038688;28;20543;-77
2024/01/15 00:58:50;;;;;;;0.30;0.30;;;;;;;-0.42;100.00;99878.16;5037180;28;20131;-74
2024/01/15 01:01:17;;;;;;;0.40;0.40;;;;;;;-0.91;100.00;99848.06;5043583;28;20049;-75
2024/01/15 01:03:43;;;;;;;0.43;0.43;;;;;;;-0.72;100.00;99885.66;5021756;28;20041;-77
2024/01/15 01:06:08;;;;;;;4.55;4.30;;;;;;;-0.82;100.00;99827.78;5051713;28;20045;-75
2024/01/15 01:08:34;;;;;;;0.30;0.30;;;;;;;-0.08;100.00;99943.78;5045049;28;20484;-75
2024/01/15 01:11:00;;;;;;;1.15;1.13;;;;;;;-1.31;100.00;99744.50;5045981;28;20405;-77
2024/01/15 01:13:25;;;;;;;0.75;0.73;;;;;;;-0.49;100.00;99859.03;5028935;28;20017;-75
2024/01/15 01:15:51;;;;;;;0.30;0.30;;;;;;;-0.23;100.00;99898.59;5049252;28;20453;-76
2024/01/15 01:18:16;;;;;;;1.85;1.75;;;;;;;-0.04;100.00;99950.81;5044028;28;20045;-75
2024/01/15 01:20:42;;;;;;;0.30;0.30;;;;;;;-0.31;100.00;99919.75;5036816;28;20482;-76
2024/01/15 01:23:07;;;;;;;0.50;0.50;;;;;;;-0.35;100.00;99920.47;5044879;28;20036;-76
2024/01/15 01:25:33;;;;;;;1.88;1.77;;;;;;;-0.97;100.00;99829.78;5043144;28;20033;-76
2024/01/15 01:27:58;;;;;;;0.30;0.30;;;;;;;-0.30;100.00;99927.56;5044945;28;20077;-77
2024/01/15 01:30:24;;;;;;;0.40;0.40;;;;;;;-0.25;100.00;99943.19;5043886;28;20051;-77
2024/01/15 01:32:49;;;;;;;0.30;0.30;;;;;;;-0.24;100.00;99935.50;5044949;28;20040;-76
2024/01/15 01:35:15;;;;;;;0.38;0.38;;;;;;;-0.26;100.00;99915.63;5043519;28;20044;-76
2024/01/15 01:37:40;;;;;;;0.50;0.50;;;;;;;-0.08;100.00;99939.50;5051840;28;20041;-77
2024/01/15 01:40:07;;;;;;;1.85;1.23;;;;;;;-0.83;100.00;99813.16;5043291;28;20072;-76
2024/01/15 01:42:32;;;;;;;0.30;0.30;;;;;;;-0.75;100.00;99818.56;5047500;28;20049;-75
2024/01/15 01:44:58;;;;;;;0.73;0.50;;;;;;;-0.53;100.00;99862.31;5039852;28;20047;-76
2024/01/15 01:47:26;;;;;;;10.80;10.02;;;;;;;-0.75;100.00;99826.28;5042856;28;20048;-77
2024/01/15 01:49:52;;;;;;;1.52;1.45;;;;;;;-0.74;100.00;99808.31;5039713;28;20065;-77
2024/01/15 01:52:18;;;;;;;0.40;0.40;;;;;;;-0.70;100.00;99817.91;5049056;28;20248;-76
2024/01/15 01:54:44;;;;;;;10.65;9.95;;;;;;;-0.06;100.00;99926.66;5042969;28;20049;-75
2024/01/15 01:57:12;;;;;;;0.47;0.47;;;;;;;-0.72;100.00;99806.69;5051487;28;20048;-76
2024/01/15 01:59:38;;;;;;;0.35;0.35;;;;;;;-0.14;100.00;99918.66;5049756;28;20049;-75
2024/01/15 02:02:05;;;;;;;0.30;0.30;;;;;;;-0.61;100.00;99813.91;5045138;28;20141;-76
2024/01/15 02:04:31;;;;;;;1.65;1.55;;;;;;;-0.51;100.00;99836.59;5052042;28;20365;-76
2024/01/15 02:06:57;;;;;;;0.63;0.63;;;;;;;-0.26;100.00;99907.91;5043337;28;20049;-77
2024/01/15 02:09:22;;;;;;;2.05;1.95;;;;;;;-0.08;100.00;99918.00;5046644;28;20048;-77
2024/01/15 02:11:48;;;;;;;0.35;0.35;;;;;;;-0.44;100.00;99859.19;5046221;28;20114;-76
2024/01/15 02:14:14;;;;;;;5.25;5.00;;;;;;;-0.32;100.00;99857.03;5042271;28;20830;-75
2024/01/15 02:16:39;;;;;;;0.35;0.35;;;;;;;-0.17;100.00;99907.34;5047398;28;20609;-76
2024/01/15 02:19:05;;;;;;;0.30;0.30;;;;;;;-0.62;100.00;99823.34;5044130;28;20036;-76
2024/01/15 02:21:33;;;;;;;0.47;0.47;;;;;;;-0.11;100.00;99912.75;5053305;28;20044;-76
2024/01/15 02:23:59;;;;;;;0.47;0.47;;;;;;;-0.60;100.00;99833.69;5039550;28;20048;-76
2024/01/15 02:26:25;;;;;;;1.60;1.58;;;;;;;-0.16;100.00;99909.13;5040817;28;20091;-76
2024/01/15 02:28:51;;;;;;;0.30;0.30;;;;;;;-0.60;100.00;99793.34;5050768;28;20036;-78
2024/01/15 02:31:17;;;;;;;0.30;0.30;;;;;;;-0.81;100.00;99790.91;5052262;28;20049;-77
2024/01/15 02:33:43;;;;;;;0.30;0.30;;;;;;;-0.26;100.00;99848.63;5037222;28;20084;-76
2024/01/15 02:36:09;;;;;;;0.50;0.50;;;;;;;-0.38;100.00;99831.03;5044686;28;20049;-76
2024/01/15 02:38:35;;;;;;;0.50;0.50;;;;;;;-0.68;100.00;99753.56;5035926;28;20111;-77
2024/01/15 02:41:00;;;;;;;0.30;0.30;;;;;;;-0.11;100.00;99858.59;5036080;28;20037;-76
2024/01/15 02:43:26;;;;;;;0.30;0.30;;;;;;;-0.67;100.00;99748.47;5049218;28;20029;-77
2024/01/15 02:45:51;;;;;;;0.38;0.38;;;;;;;-0.06;100.00;99865.66;5029141;28;20060;-76
2024/01/15 02:48:17;;;;;;;0.30;0.30;;;;;;;-0.28;100.00;99797.03;5040308;28;20075;-77
2024/01/15 02:50:42;;;;;;;0.50;0.50;;;;;;;0.22;100.00;99891.50;5022380;28;20049;-76
2024/01/15 02:53:08;;;;;;;0.40;0.40;;;;;;;-0.27;100.00;99805.63;5035065;28;20057;-76
2024/01/15 02:55:33;;;;;;;1.80;1.75;;;;;;;0.14;100.00;99892.13;5023903;28;20044;-77
2024/01/15 02:57:59;;;;;;;0.70;0.70;;;;;;;-0.20;100.00;99824.75;5039057;28;20091;-77
2024/01/15 03:00:25;;;;;;;6.93;6.32;;;;;;;0.20;100.00;99881.97;5045204;28;20131;-76
2024/01/15 03:02:51;;;;;;;0.30;0.30;;;;;;;-0.39;100.00;99782.91;5035581;28;20037;-77
2024/01/15 03:05:16;;;;;;;0.30;0.30;;;;;;;-0.17;100.00;99812.84;5045655;28;20124;-77
2024/01/15 03:07:43;;;;;;;1.20;1.20;;;;;;;0.20;100.00;99874.25;5048830;28;20386;-77
2024/01/15 03:10:09;;;;;;;10.52;9.88;;;;;;;-0.40;100.00;99773.41;5028879;28;20433;-78
2024/01/15 03:12:35;;;;;;;0.38;0.38;;;;;;;-0.19;100.00;99793.00;5045451;28;20594;-77
2024/01/15 03:15:01;;;;;;;0.95;0.95;;;;;;;0.29;100.00;99877.97;5040267;28;20131;-77
2024/01/15 03:17:26;;;;;;;1.25;1.25;;;;;;;-0.24;100.00;99837.53;5039655;28;20041;-77
2024/01/15 03:19:52;;;;;;;0.30;0.30;;;;;;;-0.35;100.00;99781.28;5042357;28;20033;-76
2024/01/15 03:22:17;;;;;;;0.38;0.38;;;;;;;-0.39;100.00;99757.13;5040342;28;20073;-76
2024/01/15 03:24:43;;;;;;;0.35;0.35;;;;;;;0.20;100.00;99865.63;5034538;28;20056;-77
2024/01/15 03:27:09;;;;;;;5.97;5.63;;;;;;;-0.06;100.00;99824.38;5040407;28;20045;-76
2024/01/15 03:29:35;;;;;;;0.95;0.90;;;;;;;-0.12;100.00;99826.75;5040430;28;20061;-75
2024/01/15 03:32:00;;;;;;;2.38;1.40;;;;;;;-0.59;100.00;99733.25;5037364;28;20817;-76
2024/01/15 03:34:26;;;;;;;0.38;0.35;;;;;;;-0.21;100.00;99829.06;5037428;28;20037;-77
2024/01/15 03:36:51;;;;;;;1.70;1.60;;;;;;;-0.03;100.00;99837.38;5009862;28;20731;-77
2024/01/15 03:39:17;;;;;;;3.75;3.60;;;;;;;-0.51;100.00;99744.72;5038891;28;20092;-77
2024/01/15 03:41:42;;;;;;;0.40;0.40;;;;;;;-0.40;100.00;99786.28;5039701;28;20072;-78
2024/01/15 03:44:08;;;;;;;12.68;9.52;;;;;;;0.26;100.00;99880.41;5039490;28;20461;-78
2024/01/15 03:46:33;;;;;;;0.70;0.70;;;;;;;-0.08;100.00;99825.16;5015003;28;20052;-79
2024/01/15 03:48:59;;;;;;;0.30;0.30;;;;;;;-0.47;100.00;99779.16;5042595;28;20678;-77
2024/01/15 03:51:24;;;;;;;1.15;1.05;;;;;;;-0.69;100.00;99770.72;5043905;28;20131;-76
2024/01/15 03:53:50;;;;;;;0.32;0.32;;;;;;;-0.88;100.00;99733.16;5041051;28;20144;-75
2024/01/15 03:56:15;;;;;;;6.53;6.25;;;;;;;-0.42;100.00;99790.53;5051010;28;20049;-76
2024/01/15 03:58:41;;;;;;;0.43;0.43;;;;;;;-0.64;100.00;99766.59;5047816;28;21100;-77
2024/01/15 04:01:10;;;;;;;0.20;0.20;;;;;;;0.06;100.00;99857.44;5035421;28;20053;-78
2024/01/15 04:03:36;;;;;;;31.27;8.07;;;;;;;-0.66;100.00;99723.56;5044408;28;20055;-75
2024/01/15 04:06:01;;;;;;;0.45;0.45;;;;;;;-0.60;100.00;99790.78;5048157;28;20044;-77
2024/01/15 04:08:27;;;;;;;1.42;1.33;;;;;;;-0.06;100.00;99852.75;5045386;28;20059;-76
2024/01/15 04:10:52;;;;;;;2.50;2.40;;;;;;;-0.44;100.00;99771.56;5050645;28;20106;-76
2024/01/15 04:13:18;;;;;;;5.28;5.05;;;;;;;0.19;100.00;99869.91;5045346;28;20136;-76
2024/01/15 04:15:43;;;;;;;3.25;3.03;;;;;;;-0.46;100.00;99770.63;5043124;28;20525;-75
2024/01/15 04:18:09;;;;;;;0.30;0.30;;;;;;;0.11;100.00;99866.19;5052283;28;20056;-75
2024/01/15 04:20:34;;;;;;;0.30;0.30;;;;;;;-0.27;100.00;99810.78;5052386;28;20045;-76
2024/01/15 04:23:00;;;;;;;3.92;0.55;;;;;;;-0.49;100.00;99767.97;5044117;28;20044;-75
2024/01/15 04:25:25;;;;;;;0.60;0.60;;;;;;;-0.20;100.00;99843.69;5036999;28;20059;-76
2024/01/15 04:27:51;;;;;;;1.98;1.88;;;;;;;-0.18;100.00;99846.31;5053083;28;20455;-76
2024/01/15 04:30:16;;;;;;;0.40;0.40;;;;;;;-0.05;100.00;99861.34;5035214;28;20052;-77
2024/01/15 04:32:42;;;;;;;0.20;0.20;;;;;;;0.12;100.00;99855.06;5045640;28;20128;-76
2024/01/15 04:35:07;;;;;;;0.40;0.40;;;;;;;-0.18;100.00;99795.63;5044144;28;20043;-75
2024/01/15 04:37:33;;;;;;;0.63;0.63;;;;;;;-0.20;100.00;99820.47;5023923;28;20061;-77
2024/01/15 04:39:58;;;;;;;1.08;1.02;;;;;;;-0.24;100.00;99840.09;5040520;28;20429;-78
2024/01/15 04:42:24;;;;;;;0.30;0.30;;;;;;;-1.02;100.00;99663.97;5054907;28;20053;-77
2024/01/15 04:44:49;;;;;;;0.20;0.20;;;;;;;-0.17;100.00;99794.78;5042025;28;20071;-77
2024/01/15 04:47:15;;;;;;;0.32;0.32;;;;;;;-0.02;100.00;99843.44;5042144;28;20595;-76
2024/01/15 04:49:41;;;;;;;0.40;0.40;;;;;;;0.12;100.00;99859.38;5046184;28;20043;-76
2024/01/15 04:52:06;;;;;;;0.93;0.93;;;;;;;-0.08;100.00;99838.91;5042174;28;20045;-76
2024/01/15 04:54:33;;;;;;;12.23;11.27;;;;;;;-0.83;100.00;99759.06;5035892;28;20076;-77
2024/01/15 04:56:58;;;;;;;0.93;0.93;;;;;;;-0.26;100.00;99791.91;5039109;28;20160;-77
2024/01/15 04:59:24;;;;;;;0.63;0.50;;;;;;;0.22;100.00;99869.16;5043627;28;20544;-77
2024/01/15 05:01:49;;;;;;;1.00;1.00;;;;;;;0.11;100.00;99863.63;5042825;28;20048;-77
2024/01/15 05:04:15;;;;;;;0.40;0.40;;;;;;;-0.39;100.00;99739.09;5056324;28;20061;-79
2024/01/15 05:06:40;;;;;;;0.60;0.60;;;;;;;0.20;100.00;99857.88;5055679;28;20055;-76
2024/01/15 05:09:07;;;;;;;0.90;0.90;;;;;;;0.07;100.00;99858.31;5044747;28;20496;-77
2024/01/15 05:11:33;;;;;;;0.60;0.60;;;;;;;-0.60;100.00;99759.84;5051695;28;20060;-77
2024/01/15 05:13:59;;;;;;;0.30;0.30;;;;;;;-0.10;100.00;99821.66;5049827;28;20634;-76
2024/01/15 05:16:24;;;;;;;19.65;18.25;;;;;;;-0.08;100.00;99844.09;5041519;28;20155;-77
2024/01/15 05:18:50;;;;;;;2.15;2.05;;;;;;;0.06;100.00;99841.09;5040587;28;20045;-77
2024/01/15 05:21:15;;;;;;;0.35;0.35;;;;;;;-0.72;100.00;99723.38;5053824;28;20762;-76
2024/01/15 05:23:41;;;;;;;0.35;0.35;;;;;;;-0.06;100.00;99826.97;5047385;28;20297;-77
2024/01/15 05:26:08;;;;;;;10.93;10.05;;;;;;;-0.80;100.00;99714.50;5040168;28;20350;-78
2024/01/15 05:28:34;;;;;;;0.40;0.40;;;;;;;-0.28;100.00;99835.69;5047230;28;20528;-78
2024/01/15 05:31:00;;;;;;;0.30;0.30;;;;;;;-0.34;100.00;99824.28;5037206;28;20055;-78
2024/01/15 05:33:25;;;;;;;0.30;0.30;;;;;;;-0.15;100.00;99839.53;5044414;28;20068;-76
2024/01/15 05:35:53;;;;;;;0.30;0.30;;;;;;;-0.14;100.00;99815.53;5055167;28;20048;-78
2024/01/15 05:38:19;;;;;;;0.55;0.55;;;;;;;-0.14;100.00;99835.25;5048425;28;20048;-78
2024/01/15 05:40:44;;;;;;;0.52;0.50;;;;;;;-0.33;100.00;99828.59;5049291;28;20056;-72
2024/01/15 05:43:10;;;;;;;0.30;0.30;;;;;;;-0.96;100.00;99715.66;5054607;28;20048;-73
2024/01/15 05:45:38;;;;;;;0.68;0.68;;;;;;;-0.89;100.00;99715.06;5041039;28;20808;-74
2024/01/15 05:48:03;;;;;;;0.30;0.30;;;;;;;-0.19;100.00;99832.53;5012216;28;20036;-72
2024/01/15 05:50:29;;;;;;;10.52;9.63;;;;;;;-0.69;100.00;99736.34;5044154;28;20536;-72
2024/01/15 05:52:54;;;;;;;9.38;8.63;;;;;;;-0.17;100.00;99820.56;5043633;28;20032;-73
2024/01/15 05:55:20;;;;;;;0.75;0.75;;;;;;;-0.07;100.00;99827.81;5042033;28;20422;-74
2024/01/15 05:57:45;;;;;;;1.15;0.95;;;;;;;-0.76;100.00;99704.34;5027260;28;20568;-72
2024/01/15 06:00:12;;;;;;;1.00;1.00;;;;;;;-0.09;100.00;99823.44;5044816;28;20103;-73
2024/01/15 06:02:39;;;;;;;0.77;0.77;;;;;;;-0.75;100.00;99736.13;5043150;28;20045;-74
2024/01/15 06:05:05;;;;;;;0.20;0.20;;;;;;;-0.86;100.00;99736.66;5041419;28;20222;-75
2024/01/15 06:07:30;;;;;;;0.40;0.40;;;;;;;-0.86;100.00;99722.91;5041096;28;20044;-74
2024/01/15 06:09:58;;;;;;;3.53;3.25;;;;;;;-0.97;100.00;99716.50;5024488;28;20389;-74
2024/01/15 06:12:24;;;;;;;12.25;11.43;;;;;;;-1.11;100.00;99692.84;5040586;28;20049;-74
2024/01/15 06:14:49;;;;;;;4.88;4.68;;;;;;;-0.28;100.00;99811.59;5044632;28;20056;-74
2024/01/15 06:17:15;;;;;;;0.47;0.47;;;;;;;-0.76;100.00;99719.81;5044612;28;20052;-75
2024/01/15 06:19:40;;;;;;;0.50;0.50;;;;;;;-0.33;100.00;99808.88;5043896;28;20070;-74
2024/01/15 06:22:06;;;;;;;0.88;0.88;;;;;;;-0.61;100.00;99781.28;5045661;28;20056;-73
2024/01/15 06:24:32;;;;;;;1.13;1.13;;;;;;;-0.42;100.00;99790.53;5038585;28;20044;-75
2024/01/15 06:26:57;;;;;;;2.35;2.25;;;;;;;-0.81;100.00;99728.22;5046399;28;20477;-74
2024/01/15 06:29:27;;;;;;;6.78;6.22;;;;;;;-1.01;100.00;99689.75;5047875;28;20045;-75
2024/01/15 06:31:52;;;;;;;14.07;5.25;;;;;;;-0.83;100.00;99710.13;5046060;28;20028;-73
2024/01/15 06:34:18;;;;;;;0.50;0.50;;;;;;;-0.97;100.00;99706.22;5048530;28;20136;-74
2024/01/15 06:36:44;;;;;;;2.58;2.47;;;;;;;-0.18;100.00;99816.25;5034259;28;20571;-74
2024/01/15 06:39:10;;;;;;;0.68;0.68;;;;;;;-0.22;100.00;99815.25;5052089;28;20127;-75
2024/01/15 06:41:41;;;;;;;0.43;0.43;;;;;;;-0.78;100.00;99730.88;5053798;28;20514;-73
2024/01/15 06:44:07;;;;;;;2.33;2.22;;;;;;;-0.51;100.00;99805.69;5054570;28;20101;-74
2024/01/15 06:46:32;;;;;;;0.30;0.30;;;;;;;-1.06;100.00;99717.91;5050076;28;20029;-74
2024/01/15 06:48:58;;;;;;;0.60;0.60;;;;;;;-0.40;100.00;99806.91;5046997;28;20528;-74
2024/01/15 06:51:24;;;;;;;1.27;1.27;;;;;;;-0.41;100.00;99804.28;5045632;28;20482;-74
2024/01/15 06:53:50;;;;;;;1.85;1.48;;;;;;;-0.17;100.00;99815.41;5058354;28;20067;-73
2024/01/15 06:56:15;;;;;;;6.18;5.88;;;;;;;-1.08;100.00;99631.16;5058833;28;20539;-74
2024/01/15 06:58:41;;;;;;;0.38;0.38;;;;;;;-0.46;100.00;99735.44;5062315;28;20115;-74
2024/01/15 07:01:07;;;;;;;1.38;1.30;;;;;;;-0.08;100.00;99773.59;5035779;28;20045;-74
2024/01/15 07:03:33;;;;;;;3.08;2.88;;;;;;;0.10;100.00;99812.88;5053758;28;20060;-74
2024/01/15 07:05:58;;;;;;;1.42;1.42;;;;;;;0.30;100.00;99805.75;5044485;28;20760;-73
2024/01/15 07:08:24;;;;;;;1.60;1.50;;;;;;;0.07;100.00;99761.19;5043134;28;20402;-75
2024/01/15 07:10:50;;;;;;;4.15;3.78;;;;;;;-0.52;100.00;99673.38;5054672;28;20032;-73
2024/01/15 07:13:15;;;;;;;5.55;5.30;;;;;;;-0.26;100.00;99701.69;5047569;28;20147;-73
2024/01/15 07:15:41;;;;;;;10.80;10.00;;;;;;;0.28;100.00;99802.28;5055132;28;20496;-75
2024/01/15 07:18:06;;;;;;;0.95;0.75;;;;;;;0.59;100.00;99821.28;5048919;28;20053;-74
2024/01/15 07:20:32;;;;;;;0.40;0.32;;;;;;;0.70;100.00;99819.88;5048357;28;20088;-74
2024/01/15 07:22:57;;;;;;;2.38;2.28;;;;;;;0.67;100.00;99800.84;5052460;28;20075;-74
2024/01/15 07:25:23;;;;;;;2.20;2.05;;;;;;;0.62;100.00;99809.31;5050364;28;20064;-74
2024/01/15 07:27:48;;;;;;;3.13;1.85;;;;;;;0.44;100.00;99772.63;5043380;28;20049;-74
2024/01/15 07:30:14;;;;;;;0.35;0.35;;;;;;;0.49;100.00;99744.38;5060530;28;20049;-73
2024/01/15 07:32:40;;;;;;;0.85;0.85;;;;;;;0.22;100.00;99708.31;5049476;28;20052;-75
2024/01/15 07:35:06;;;;;;;0.30;0.30;;;;;;;0.94;100.00;99821.44;5053751;28;20045;-74
2024/01/15 07:37:31;;;;;;;0.40;0.40;;;;;;;0.34;100.00;99712.13;5061453;28;20048;-73
2024/01/15 07:39:58;;;;;;;1.85;1.75;;;;;;;0.46;100.00;99715.91;5048005;28;20049;-73
2024/01/15 07:42:23;;;;;;;0.90;0.90;;;;;;;0.65;100.00;99735.38;5050272;28;20045;-74
2024/01/15 07:44:50;;;;;;;3.20;3.08;;;;;;;1.05;100.00;99801.94;5048489;28;20110;-74
2024/01/15 07:47:16;;;;;;;3.35;3.13;;;;;;;0.64;100.00;99719.03;5053518;28;20048;-74
2024/01/15 07:49:42;;;;;;;5.60;5.35;;;;;;;0.88;100.00;99778.22;5055351;28;21236;-73
2024/01/15 07:52:07;;;;;;;2.33;2.15;;;;;;;1.35;100.00;99814.84;5056981;28;20075;-74
2024/01/15 07:54:34;;;;;;;1.10;1.10;;;;;;;1.39;100.00;99815.81;5058286;28;20040;-74
2024/01/15 07:57:01;;;;;;;1.05;1.05;;;;;;;1.19;100.00;99818.69;5046918;28;20068;-73
2024/01/15 07:59:28;;;;;;;3.80;3.60;;;;;;;1.50;100.00;99819.56;5052538;28;20133;-74
2024/01/15 08:01:53;;;;;;;1.27;1.17;;;;;;;1.45;100.00;99803.03;5052571;28;20353;-73
2024/01/15 08:04:20;;;;;;;1.00;1.00;;;;;;;1.71;100.00;99820.94;5028252;28;20063;-73
2024/01/15 08:06:46;;;;;;;7.45;7.13;;;;;;;1.71;100.00;99805.44;5050839;28;20033;-74
2024/01/15 08:09:12;;;;;;;0.40;0.40;;;;;;;1.68;100.00;99806.22;5046461;28;20053;-74
2024/01/15 08:11:41;;;;;;;0.50;0.50;;;;;;;1.85;100.00;99817.00;5052875;28;20483;-74
2024/01/15 08:14:08;;;;;;;0.50;0.50;;;;;;;1.90;100.00;99823.19;5055673;28;20040;-74
2024/01/15 08:16:34;;;;;;;1.48;1.35;;;;;;;0.96;100.00;99701.84;5044528;28;20029;-73
2024/01/15 08:18:59;;;;;;;0.40;0.40;;;;;;;1.52;100.00;99770.47;5051487;28;20708;-74
2024/01/15 08:21:25;;;;;;;2.15;1.20;;;;;;;1.70;100.00;99752.84;5053937;28;20041;-73
2024/01/15 08:23:50;;;;;;;1.65;1.55;;;;;;;2.19;100.00;99821.31;5048835;28;20122;-73
2024/01/15 08:26:16;;;;;;;0.50;0.50;;;;;;;2.16;100.00;99807.44;5051426;28;20524;-74
2024/01/15 08:28:41;;;;;;;0.93;0.93;;;;;;;1.94;100.00;99791.34;5054523;28;20025;-72
2024/01/15 08:31:07;;;;;;;3.42;3.25;;;;;;;2.23;100.00;99815.38;5055213;28;20487;-73
2024/01/15 08:33:32;;;;;;;0.45;0.45;;;;;;;1.72;100.00;99699.44;5044833;28;20467;-74
2024/01/15 08:35:58;;;;;;;1.73;1.63;;;;;;;2.57;100.00;99815.25;5049958;28;20084;-75
2024/01/15 08:38:25;;;;;;;6.07;5.65;;;;;;;2.69;100.00;99803.47;5056349;28;20041;-73
2024/01/15 08:40:51;;;;;;;1.30;1.30;;;;;;;2.74;100.00;99796.69;5043306;28;20045;-73
2024/01/15 08:43:16;;;;;;;1.80;1.70;;;;;;;2.31;100.00;99754.28;5049898;28;20138;-73
2024/01/15 08:45:42;;;;;;;0.30;0.30;;;;;;;2.04;100.00;99701.94;5051591;28;20052;-74
2024/01/15 08:48:07;;;;;;;1.15;1.15;;;;;;;2.37;100.00;99706.09;5045224;28;20793;-74
2024/01/15 08:50:33;;;;;;;4.50;2.80;;;;;;;2.61;100.00;99691.06;5051005;28;20063;-73
2024/01/15 08:52:59;;;;;;;1.83;1.73;;;;;;;2.78;100.00;99686.22;5049342;28;20025;-73
2024/01/15 08:55:24;;;;;;;0.43;0.43;;;;;;;3.34;100.00;99769.34;5050769;28;20033;-74
2024/01/15 08:57:50;;;;;;;1.55;1.45;;;;;;;2.76;100.00;99664.56;5045993;28;20060;-74
2024/01/15 09:00:17;;;;;;;1.30;1.23;;;;;;;3.43;100.00;99753.09;5052621;28;20040;-74
2024/01/15 09:02:44;;;;;;;2.33;2.15;;;;;;;3.58;100.00;99760.25;5036868;28;20041;-74
2024/01/15 09:05:10;;;;;;;0.30;0.30;;;;;;;3.72;100.00;99774.38;5052907;28;20032;-74
2024/01/15 09:07:37;;;;;;;0.82;0.82;;;;;;;1.82;100.00;99414.31;5050824;28;20032;-74
2024/01/15 09:10:02;;;;;;;16.10;8.40;;;;;;;3.47;100.00;99677.09;5043564;28;20390;-74
2024/01/15 09:12:29;;;;;;;0.30;0.30;;;;;;;3.36;100.00;99668.25;5050023;28;20083;-73
2024/01/15 09:14:55;;;;;;;0.38;0.38;;;;;;;4.08;100.00;99751.59;5052603;28;20168;-74
2024/01/15 09:17:23;;;;;;;2.15;2.05;;;;;;;4.05;100.00;99729.06;5045952;28;20045;-74
2024/01/15 09:19:49;;;;;;;0.43;0.43;;;;;;;3.93;100.00;99721.94;5031904;28;20138;-74
2024/01/15 09:22:18;;;;;;;0.30;0.30;;;;;;;4.33;100.00;99740.72;5046769;28;20578;-73
2024/01/15 09:24:44;;;;;;;2.05;1.20;;;;;;;4.11;100.00;99666.81;5048081;28;20041;-73
2024/01/15 09:27:09;;;;;;;2.63;2.38;;;;;;;4.47;100.00;99719.22;5049093;28;20075;-73
2024/01/15 09:29:37;;;;;;;3.17;2.97;;;;;;;4.04;100.00;99625.19;5035318;28;20080;-73
2024/01/15 09:32:04;;;;;;;0.45;0.45;;;;;;;4.55;100.00;99689.91;5050092;28;20474;-71
2024/01/15 09:34:29;;;;;;;0.63;0.50;;;;;;;4.63;100.00;99667.47;5045065;28;20040;-75
2024/01/15 09:36:55;;;;;;;7.65;7.28;;;;;;;4.19;100.00;99579.53;5043189;28;20097;-73
2024/01/15 09:39:22;;;;;;;0.40;0.40;;;;;;;4.45;100.00;99617.94;5035034;28;20056;-74
2024/01/15 09:41:48;;;;;;;0.47;0.47;;;;;;;4.44;100.00;99610.97;5028332;28;20723;-74
2024/01/15 09:44:14;;;;;;;1.70;1.58;;;;;;;5.07;100.00;99685.31;5033699;28;20045;-74
2024/01/15 09:46:41;;;;;;;0.57;0.57;;;;;;;5.06;100.00;99685.31;5035385;28;20029;-75
2024/01/15 09:49:06;;;;;;;0.20;0.20;;;;;;;5.07;100.00;99664.50;5023290;28;20064;-74
2024/01/15 09:51:32;;;;;;;0.30;0.30;;;;;;;4.82;100.00;99623.50;5033204;28;20041;-74
2024/01/15 09:53:58;;;;;;;0.40;0.40;;;;;;;5.20;100.00;99646.44;5023011;28;20148;-75
2024/01/15 09:56:24;;;;;;;0.85;0.82;;;;;;;5.05;100.00;99649.75;5026433;28;20041;-74
2024/01/15 09:58:52;;;;;;;0.50;0.50;;;;;;;4.96;100.00;99605.47;5025656;28;20037;-73
2024/01/15 10:01:20;;;;;;;7.57;4.32;;;;;;;5.47;100.00;99644.06;5025486;28;20449;-74
2024/01/15 10:03:46;;;;;;;0.40;0.40;;;;;;;5.59;100.00;99651.09;5028577;28;20531;-73
2024/01/15 10:06:17;;;;;;;0.50;0.50;;;;;;;5.26;100.00;99568.44;5040707;28;20041;-74
2024/01/15 10:08:47;;;;;;;0.65;0.65;;;;;;;5.50;100.00;99554.75;5026549;28;20445;-74
2024/01/15 10:11:12;;;;;;;0.73;0.73;;;;;;;5.96;100.00;99627.09;5040814;28;20029;-73
2024/01/15 10:13:39;;;;;;;0.30;0.30;;;;;;;5.68;100.00;99554.84;5033102;28;20036;-73
2024/01/15 10:16:05;;;;;;;0.50;0.50;;;;;;;6.41;100.00;99616.00;5028851;28;20050;-74
2024/01/15 10:18:30;;;;;;;0.55;0.55;;;;;;;5.95;96.07;99523.78;5032175;28;20044;-73
2024/01/15 10:20:57;;;;;;;0.20;0.20;;;;;;;6.56;95.99;99604.78;5026142;28;20091;-74
2024/01/15 10:23:23;;;;;;;1.13;1.05;;;;;;;6.58;98.94;99615.19;5030684;28;20489;-74
2024/01/15 10:25:49;;;;;;;2.42;2.25;;;;;;;5.86;93.51;99511.59;5030842;28;20034;-73
2024/01/15 10:28:14;;;;;;;3.67;2.03;;;;;;;6.21;95.64;99571.66;5025858;28;20520;-74
2024/01/15 10:30:40;;;;;;;0.40;0.40;;;;;;;5.95;96.21;99521.19;5038523;28;20531;-73
2024/01/15 10:33:06;;;;;;;0.47;0.47;;;;;;;6.47;97.29;99613.44;5027045;28;20314;-74
2024/01/15 10:35:34;;;;;;;0.30;0.30;;;;;;;6.25;94.88;99595.97;5033131;28;20048;-74
2024/01/15 10:38:01;;;;;;;0.25;0.25;;;;;;;6.27;92.94;99583.81;5049943;28;20044;-74
2024/01/15 10:40:27;;;;;;;0.30;0.30;;;;;;;6.19;93.27;99570.78;5050640;28;20046;-74
2024/01/15 10:42:53;;;;;;;0.82;0.82;;;;;;;6.50;93.13;99557.84;5047333;28;20444;-73
2024/01/15 10:45:19;;;;;;;0.20;0.20;;;;;;;6.76;92.09;99568.31;5064020;28;20040;-74
2024/01/15 10:47:44;;;;;;;0.40;0.40;;;;;;;6.95;86.17;99541.44;5053795;28;20392;-74
2024/01/15 10:50:10;;;;;;;2.15;2.05;;;;;;;7.29;83.44;99583.16;5055272;28;20086;-75
2024/01/15 10:52:40;;;;;;;1.50;1.30;;;;;;;7.02;82.29;99499.69;5060176;28;20016;-73
2024/01/15 10:55:09;;;;;;;2.45;1.05;;;;;;;7.37;81.34;99571.00;5055461;28;20046;-74
2024/01/15 10:57:36;;;;;;;0.20;0.20;;;;;;;7.60;81.07;99568.31;5041277;28;20033;-73
2024/01/15 11:00:05;;;;;;;0.57;0.57;;;;;;;7.38;79.41;99491.81;5048454;28;20057;-74
2024/01/15 11:02:35;;;;;;;0.75;0.75;;;;;;;7.32;78.64;99470.06;5048101;28;20060;-73
2024/01/15 11:05:01;;;;;;;0.95;0.95;;;;;;;7.76;78.72;99558.72;5044201;28;20484;-74
2024/01/15 11:07:27;;;;;;;0.20;0.20;;;;;;;7.33;79.66;99487.50;5043876;28;20024;-73
2024/01/15 11:09:52;;;;;;;0.50;0.50;;;;;;;7.51;81.48;99513.53;5056317;28;20124;-74
2024/01/15 11:12:19;;;;;;;0.30;0.30;;;;;;;7.59;78.99;99529.19;5058798;28;20045;-74
2024/01/15 11:14:49;;;;;;;0.30;0.30;;;;;;;7.53;80.12;99519.59;5043065;28;20052;-74
2024/01/15 11:17:16;;;;;;;0.30;0.30;;;;;;;7.40;83.20;99505.72;5045912;28;20060;-73
2024/01/15 11:19:41;;;;;;;0.50;0.50;;;;;;;7.58;84.28;99525.69;5058072;28;20714;-73
2024/01/15 11:22:34;;;;;;;0.30;0.30;;;;;;;7.39;85.26;99445.69;5051507;28;20094;-74